createdAt,value
2023-05-10T00:00:56.574Z,477.00
2023-05-10T00:01:56.646Z,478.00
2023-05-10T00:02:56.673Z,480.00
2023-05-10T00:03:56.645Z,480.00
2023-05-10T00:04:56.626Z,481.00
2023-05-10T00:05:56.585Z,482.00
2023-05-10T00:06:56.598Z,480.00
2023-05-10T00:07:56.594Z,480.00
2023-05-10T00:08:56.601Z,481.00
2023-05-10T00:09:56.585Z,480.00
2023-05-10T00:10:56.580Z,479.00
2023-05-10T00:11:56.588Z,478.00
2023-05-10T00:12:56.604Z,478.00
2023-05-10T00:13:56.588Z,479.00
2023-05-10T00:14:56.599Z,481.00
2023-05-10T00:15:56.579Z,480.00
2023-05-10T00:16:56.690Z,481.00
2023-05-10T00:17:56.628Z,482.00
2023-05-10T00:18:56.589Z,484.00
2023-05-10T00:19:56.594Z,485.00
2023-05-10T00:20:56.575Z,485.00
2023-05-10T00:21:56.567Z,486.00
2023-05-10T00:22:56.554Z,487.00
2023-05-10T00:23:56.560Z,486.00
2023-05-10T00:24:56.566Z,486.00
2023-05-10T00:25:56.591Z,485.00
2023-05-10T00:26:56.587Z,483.00
2023-05-10T00:27:56.609Z,482.00
2023-05-10T00:28:56.602Z,481.00
2023-05-10T00:29:56.580Z,482.00
2023-05-10T00:30:56.611Z,483.00
2023-05-10T00:31:56.618Z,482.00
2023-05-10T00:32:56.593Z,483.00
2023-05-10T00:33:56.642Z,482.00
2023-05-10T00:34:56.569Z,483.00
2023-05-10T00:35:56.614Z,484.00
2023-05-10T00:36:56.594Z,484.00
2023-05-10T00:37:56.588Z,486.00
2023-05-10T00:38:56.620Z,485.00
2023-05-10T00:39:56.590Z,485.00
2023-05-10T00:40:56.595Z,483.00
2023-05-10T00:41:56.630Z,484.00
2023-05-10T00:42:56.596Z,487.00
2023-05-10T00:43:56.603Z,488.00
2023-05-10T00:44:56.590Z,488.00
2023-05-10T00:45:56.652Z,486.00
2023-05-10T00:46:56.575Z,486.00
2023-05-10T00:47:56.640Z,484.00
2023-05-10T00:48:56.612Z,483.00
2023-05-10T00:49:56.592Z,482.00
2023-05-10T00:50:56.612Z,481.00
2023-05-10T00:51:56.589Z,482.00
2023-05-10T00:52:56.597Z,484.00
2023-05-10T00:53:56.605Z,484.00
2023-05-10T00:54:56.599Z,482.00
2023-05-10T00:55:56.601Z,481.00
2023-05-10T00:56:56.605Z,481.00
2023-05-10T00:57:56.618Z,480.00
2023-05-10T00:58:56.593Z,481.00
2023-05-10T00:59:56.606Z,482.00
2023-05-10T01:00:56.603Z,484.00
2023-05-10T01:01:56.578Z,487.00
2023-05-10T01:02:56.696Z,488.00
2023-05-10T01:03:56.588Z,488.00
2023-05-10T01:04:56.602Z,486.00
2023-05-10T01:05:56.603Z,486.00
2023-05-10T01:06:56.601Z,488.00
2023-05-10T01:07:56.587Z,491.00
2023-05-10T01:08:56.578Z,491.00
2023-05-10T01:09:56.606Z,489.00
2023-05-10T01:10:56.594Z,488.00
2023-05-10T01:11:56.607Z,488.00
2023-05-10T01:12:56.607Z,489.00
2023-05-10T01:13:56.574Z,486.00
2023-05-10T01:14:56.574Z,487.00
2023-05-10T01:15:56.616Z,487.00
2023-05-10T01:16:56.567Z,485.00
2023-05-10T01:17:56.613Z,482.00
2023-05-10T01:18:56.561Z,480.00
2023-05-10T01:19:56.575Z,479.00
2023-05-10T01:20:56.571Z,480.00
2023-05-10T01:21:56.544Z,481.00
2023-05-10T01:22:56.576Z,481.00
2023-05-10T01:23:56.556Z,481.00
2023-05-10T01:24:56.589Z,480.00
2023-05-10T01:25:56.603Z,482.00
2023-05-10T01:26:56.561Z,483.00
2023-05-10T01:27:56.580Z,484.00
2023-05-10T01:28:56.546Z,486.00
2023-05-10T01:30:13.635Z,483.00
2023-05-10T01:30:57.611Z,481.00
2023-05-10T01:31:56.574Z,482.00
2023-05-10T01:32:56.630Z,483.00
2023-05-10T01:33:56.526Z,483.00
2023-05-10T01:34:56.532Z,482.00
2023-05-10T01:35:56.506Z,481.00
2023-05-10T01:36:56.525Z,481.00
2023-05-10T01:37:56.503Z,479.00
2023-05-10T01:38:56.507Z,480.00
2023-05-10T01:39:56.501Z,479.00
2023-05-10T01:40:56.471Z,480.00
2023-05-10T01:41:56.483Z,481.00
2023-05-10T01:42:56.465Z,481.00
2023-05-10T01:43:56.468Z,482.00
2023-05-10T01:44:56.478Z,483.00
2023-05-10T01:45:56.434Z,480.00
2023-05-10T01:46:56.514Z,478.00
2023-05-10T01:47:56.473Z,477.00
2023-05-10T01:48:56.464Z,478.00
2023-05-10T01:49:56.448Z,477.00
2023-05-10T01:50:56.430Z,476.00
2023-05-10T01:51:56.443Z,477.00
2023-05-10T01:52:56.410Z,476.00
2023-05-10T01:53:56.439Z,475.00
2023-05-10T01:54:56.412Z,474.00
2023-05-10T01:55:56.409Z,477.00
2023-05-10T01:56:56.385Z,476.00
2023-05-10T01:57:56.395Z,476.00
2023-05-10T01:58:56.400Z,478.00
2023-05-10T01:59:56.375Z,480.00
2023-05-10T02:00:56.405Z,483.00
2023-05-10T02:01:56.353Z,486.00
2023-05-10T02:02:56.380Z,487.00
2023-05-10T02:03:56.416Z,485.00
2023-05-10T02:04:56.313Z,486.00
2023-05-10T02:05:56.334Z,486.00
2023-05-10T02:06:56.344Z,486.00
2023-05-10T02:07:56.352Z,485.00
2023-05-10T02:08:56.289Z,485.00
2023-05-10T02:09:56.297Z,486.00
2023-05-10T02:10:56.297Z,486.00
2023-05-10T02:11:56.307Z,485.00
2023-05-10T02:12:56.319Z,483.00
2023-05-10T02:13:56.309Z,482.00
2023-05-10T02:14:56.292Z,481.00
2023-05-10T02:15:56.237Z,483.00
2023-05-10T02:16:56.268Z,484.00
2023-05-10T02:17:56.273Z,484.00
2023-05-10T02:18:56.276Z,482.00
2023-05-10T02:19:56.222Z,481.00
2023-05-10T02:20:56.257Z,480.00
2023-05-10T02:21:56.235Z,477.00
2023-05-10T02:22:56.211Z,475.00
2023-05-10T02:23:56.202Z,473.00
2023-05-10T02:24:56.198Z,473.00
2023-05-10T02:25:56.203Z,474.00
2023-05-10T02:26:56.238Z,476.00
2023-05-10T02:27:56.203Z,477.00
2023-05-10T02:28:56.204Z,478.00
2023-05-10T02:29:56.171Z,477.00
2023-05-10T02:30:56.142Z,477.00
2023-05-10T02:31:56.292Z,474.00
2023-05-10T02:32:56.168Z,474.00
2023-05-10T02:33:56.156Z,475.00
2023-05-10T02:34:56.159Z,475.00
2023-05-10T02:35:56.145Z,477.00
2023-05-10T02:36:56.144Z,477.00
2023-05-10T02:37:56.143Z,476.00
2023-05-10T02:38:56.157Z,477.00
2023-05-10T02:39:56.140Z,478.00
2023-05-10T02:40:56.109Z,477.00
2023-05-10T02:41:56.091Z,477.00
2023-05-10T02:42:56.125Z,477.00
2023-05-10T02:43:56.106Z,478.00
2023-05-10T02:44:56.093Z,478.00
2023-05-10T02:45:56.172Z,477.00
2023-05-10T02:46:56.100Z,474.00
2023-05-10T02:47:56.084Z,472.00
2023-05-10T02:48:56.066Z,473.00
2023-05-10T02:49:56.049Z,476.00
2023-05-10T02:50:56.032Z,475.00
2023-05-10T02:51:56.036Z,474.00
2023-05-10T02:52:56.044Z,474.00
2023-05-10T02:53:56.013Z,474.00
2023-05-10T02:54:56.020Z,473.00
2023-05-10T02:55:56.008Z,474.00
2023-05-10T02:56:56.016Z,474.00
2023-05-10T02:57:55.981Z,475.00
2023-05-10T02:58:55.982Z,475.00
2023-05-10T02:59:55.984Z,474.00
2023-05-10T03:00:55.991Z,473.00
2023-05-10T03:01:55.986Z,473.00
2023-05-10T03:02:56.043Z,475.00
2023-05-10T03:03:55.952Z,474.00
2023-05-10T03:04:56.011Z,475.00
2023-05-10T03:05:55.950Z,475.00
2023-05-10T03:06:55.956Z,474.00
2023-05-10T03:07:55.967Z,473.00
2023-05-10T03:08:55.959Z,474.00
2023-05-10T03:09:55.943Z,473.00
2023-05-10T03:10:55.959Z,475.00
2023-05-10T03:11:55.962Z,476.00
2023-05-10T03:12:55.999Z,476.00
2023-05-10T03:13:56.651Z,477.00
2023-05-10T03:14:55.943Z,477.00
2023-05-10T03:15:55.946Z,479.00
2023-05-10T03:16:55.934Z,480.00
2023-05-10T03:17:55.962Z,482.00
2023-05-10T03:18:55.920Z,481.00
2023-05-10T03:19:55.973Z,481.00
2023-05-10T03:20:55.968Z,481.00
2023-05-10T03:21:55.928Z,481.00
2023-05-10T03:22:55.980Z,479.00
2023-05-10T03:23:55.959Z,479.00
2023-05-10T03:24:55.930Z,479.00
2023-05-10T03:25:55.956Z,479.00
2023-05-10T03:26:55.929Z,477.00
2023-05-10T03:27:55.915Z,477.00
2023-05-10T03:28:55.981Z,477.00
2023-05-10T03:29:55.950Z,477.00
2023-05-10T03:30:55.929Z,475.00
2023-05-10T03:31:55.993Z,477.00
2023-05-10T03:32:55.956Z,478.00
2023-05-10T03:33:55.944Z,478.00
2023-05-10T03:34:55.921Z,477.00
2023-05-10T03:35:55.916Z,474.00
2023-05-10T03:36:55.913Z,475.00
2023-05-10T03:37:55.877Z,474.00
2023-05-10T03:38:55.881Z,474.00
2023-05-10T03:39:55.908Z,477.00
2023-05-10T03:40:55.872Z,478.00
2023-05-10T03:41:55.871Z,476.00
2023-05-10T03:42:55.883Z,477.00
2023-05-10T03:43:55.938Z,476.00
2023-05-10T03:44:55.885Z,475.00
2023-05-10T03:45:55.895Z,476.00
2023-05-10T03:46:55.903Z,475.00
2023-05-10T03:47:55.883Z,475.00
2023-05-10T03:48:55.857Z,474.00
2023-05-10T03:49:55.852Z,474.00
2023-05-10T03:50:55.891Z,473.00
2023-05-10T03:51:55.845Z,473.00
2023-05-10T03:52:55.867Z,472.00
2023-05-10T03:53:55.865Z,473.00
2023-05-10T03:54:55.865Z,473.00
2023-05-10T03:55:55.863Z,474.00
2023-05-10T03:56:55.866Z,474.00
2023-05-10T03:57:55.827Z,473.00
2023-05-10T03:58:55.840Z,474.00
2023-05-10T03:59:55.857Z,474.00
2023-05-10T04:00:55.814Z,474.00
2023-05-10T04:01:55.858Z,474.00
2023-05-10T04:02:55.886Z,473.00
2023-05-10T04:03:55.852Z,473.00
2023-05-10T04:04:55.845Z,471.00
2023-05-10T04:05:55.854Z,470.00
2023-05-10T04:06:55.833Z,469.00
2023-05-10T04:07:55.841Z,469.00
2023-05-10T04:08:55.831Z,471.00
2023-05-10T04:09:55.869Z,473.00
2023-05-10T04:10:55.831Z,472.00
2023-05-10T04:11:55.860Z,472.00
2023-05-10T04:12:55.851Z,472.00
2023-05-10T04:13:55.804Z,472.00
2023-05-10T04:14:55.846Z,474.00
2023-05-10T04:15:55.863Z,477.00
2023-05-10T04:16:55.870Z,477.00
2023-05-10T04:17:55.877Z,479.00
2023-05-10T04:18:55.802Z,480.00
2023-05-10T04:19:55.846Z,482.00
2023-05-10T04:20:56.169Z,481.00
2023-05-10T04:21:56.241Z,481.00
2023-05-10T04:22:55.922Z,481.00
2023-05-10T04:23:55.956Z,481.00
2023-05-10T04:24:56.033Z,478.00
2023-05-10T04:25:56.064Z,478.00
2023-05-10T04:26:57.765Z,477.00
2023-05-10T04:27:56.160Z,478.00
2023-05-10T04:28:56.145Z,477.00
2023-05-10T04:29:56.185Z,478.00
2023-05-10T04:30:56.161Z,479.00
2023-05-10T04:31:56.143Z,481.00
2023-05-10T04:32:56.202Z,481.00
2023-05-10T04:33:56.156Z,482.00
2023-05-10T04:34:56.127Z,481.00
2023-05-10T04:35:56.115Z,481.00
2023-05-10T04:36:56.104Z,478.00
2023-05-10T04:37:56.136Z,478.00
2023-05-10T04:38:56.145Z,478.00
2023-05-10T04:39:56.125Z,478.00
2023-05-10T04:40:56.141Z,475.00
2023-05-10T04:41:56.118Z,476.00
2023-05-10T04:42:56.147Z,477.00
2023-05-10T04:43:56.110Z,477.00
2023-05-10T04:44:56.105Z,476.00
2023-05-10T04:45:56.097Z,475.00
2023-05-10T04:46:56.101Z,474.00
2023-05-10T04:47:56.165Z,473.00
2023-05-10T04:48:56.112Z,473.00
2023-05-10T04:49:56.125Z,473.00
2023-05-10T04:50:56.092Z,474.00
2023-05-10T04:51:56.098Z,473.00
2023-05-10T04:52:56.107Z,471.00
2023-05-10T04:54:05.286Z,472.00
2023-05-10T04:54:57.089Z,472.00
2023-05-10T04:55:56.079Z,474.00
2023-05-10T04:56:56.063Z,474.00
2023-05-10T04:57:56.092Z,473.00
2023-05-10T04:58:56.077Z,472.00
2023-05-10T04:59:56.038Z,472.00
2023-05-10T05:01:03.018Z,473.00
2023-05-10T05:01:56.150Z,476.00
2023-05-10T05:02:56.114Z,476.00
2023-05-10T05:03:56.167Z,474.00
2023-05-10T05:04:56.016Z,476.00
2023-05-10T05:05:56.001Z,476.00
2023-05-10T05:06:55.972Z,475.00
2023-05-10T05:07:55.974Z,476.00
2023-05-10T05:08:55.996Z,475.00
2023-05-10T05:09:56.007Z,472.00
2023-05-10T05:10:55.980Z,471.00
2023-05-10T05:11:55.970Z,471.00
2023-05-10T05:12:55.972Z,471.00
2023-05-10T05:13:55.956Z,472.00
2023-05-10T05:14:55.925Z,471.00
2023-05-10T05:15:55.946Z,471.00
2023-05-10T05:16:55.933Z,472.00
2023-05-10T05:17:56.041Z,473.00
2023-05-10T05:18:55.915Z,474.00
2023-05-10T05:19:55.900Z,474.00
2023-05-10T05:20:55.908Z,474.00
2023-05-10T05:21:55.893Z,476.00
2023-05-10T05:22:55.878Z,478.00
2023-05-10T05:23:55.863Z,478.00
2023-05-10T05:24:55.889Z,476.00
2023-05-10T05:25:55.865Z,477.00
2023-05-10T05:26:55.884Z,478.00
2023-05-10T05:27:55.842Z,479.00
2023-05-10T05:28:55.834Z,480.00
2023-05-10T05:29:55.837Z,478.00
2023-05-10T05:30:55.847Z,475.00
2023-05-10T05:31:55.951Z,476.00
2023-05-10T05:32:55.852Z,479.00
2023-05-10T05:33:56.207Z,489.00
2023-05-10T05:34:55.803Z,496.00
2023-05-10T05:35:55.796Z,507.00
2023-05-10T05:36:55.767Z,509.00
2023-05-10T05:37:55.770Z,510.00
2023-05-10T05:38:56.227Z,513.00
2023-05-10T05:39:55.755Z,637.00
2023-05-10T05:40:55.792Z,863.00
2023-05-10T05:41:55.750Z,606.00
2023-05-10T05:42:55.771Z,617.00
2023-05-10T05:43:56.209Z,751.00
2023-05-10T05:44:55.738Z,700.00
2023-05-10T05:46:02.784Z,688.00
2023-05-10T05:46:55.746Z,650.00
2023-05-10T05:47:55.832Z,654.00
2023-05-10T05:48:55.750Z,717.00
2023-05-10T05:49:55.718Z,705.00
2023-05-10T05:50:55.693Z,701.00
2023-05-10T05:51:55.681Z,703.00
2023-05-10T05:52:55.711Z,709.00
2023-05-10T05:53:55.752Z,710.00
2023-05-10T05:54:55.667Z,717.00
2023-05-10T05:55:55.688Z,721.00
2023-05-10T05:56:55.670Z,724.00
2023-05-10T05:57:55.631Z,740.00
2023-05-10T05:58:55.638Z,748.00
2023-05-10T05:59:55.613Z,759.00
2023-05-10T06:00:55.624Z,786.00
2023-05-10T06:01:55.730Z,791.00
2023-05-10T06:02:55.678Z,798.00
2023-05-10T06:03:55.711Z,804.00
2023-05-10T06:04:55.635Z,804.00
2023-05-10T06:05:55.597Z,804.00
2023-05-10T06:06:55.606Z,857.00
2023-05-10T06:07:55.577Z,877.00
2023-05-10T06:08:55.577Z,889.00
2023-05-10T06:09:55.567Z,903.00
2023-05-10T06:10:55.562Z,932.00
2023-05-10T06:11:55.548Z,951.00
2023-05-10T06:12:55.616Z,977.00
2023-05-10T06:13:55.562Z,997.00
2023-05-10T06:14:55.542Z,1006.00
2023-05-10T06:15:55.520Z,1025.00
2023-05-10T06:16:55.617Z,1043.00
2023-05-10T06:17:56.210Z,1057.00
2023-05-10T06:18:55.508Z,1084.00
2023-05-10T06:19:55.616Z,1102.00
2023-05-10T06:20:55.569Z,1114.00
2023-05-10T06:21:55.601Z,1121.00
2023-05-10T06:22:55.640Z,1140.00
2023-05-10T06:23:55.680Z,1162.00
2023-05-10T06:24:55.712Z,1172.00
2023-05-10T06:25:55.729Z,1175.00
2023-05-10T06:26:55.775Z,1179.00
2023-05-10T06:27:55.792Z,1184.00
2023-05-10T06:28:55.814Z,1190.00
2023-05-10T06:30:02.068Z,1226.00
2023-05-10T06:30:56.813Z,1237.00
2023-05-10T06:31:55.966Z,1246.00
2023-05-10T06:32:55.845Z,1253.00
2023-05-10T06:33:56.739Z,1258.00
2023-05-10T06:34:55.833Z,1266.00
2023-05-10T06:35:55.820Z,1269.00
2023-05-10T06:36:55.885Z,1269.00
2023-05-10T06:37:55.898Z,1130.00
2023-05-10T06:38:55.927Z,859.00
2023-05-10T06:39:56.007Z,827.00
2023-05-10T06:40:55.975Z,775.00
2023-05-10T06:41:55.991Z,791.00
2023-05-10T06:42:56.022Z,806.00
2023-05-10T06:43:55.980Z,909.00
2023-05-10T06:44:55.997Z,1028.00
2023-05-10T06:45:56.050Z,1088.00
2023-05-10T06:46:56.123Z,1096.00
2023-05-10T06:47:56.191Z,1101.00
2023-05-10T06:48:56.223Z,1100.00
2023-05-10T06:49:56.781Z,1108.00
2023-05-10T06:50:56.314Z,1116.00
2023-05-10T06:51:56.330Z,1124.00
2023-05-10T06:52:56.401Z,1134.00
2023-05-10T06:53:56.456Z,1148.00
2023-05-10T06:54:56.469Z,1157.00
2023-05-10T06:55:56.493Z,1166.00
2023-05-10T06:56:56.983Z,1187.00
2023-05-10T06:57:56.732Z,1197.00
2023-05-10T06:58:56.595Z,1208.00
2023-05-10T06:59:56.586Z,1221.00
2023-05-10T07:00:56.603Z,1229.00
2023-05-10T07:01:56.597Z,1234.00
2023-05-10T07:02:56.693Z,1275.00
2023-05-10T07:03:56.625Z,1302.00
2023-05-10T07:04:56.807Z,1305.00
2023-05-10T07:05:56.706Z,1317.00
2023-05-10T07:06:56.752Z,1334.00
2023-05-10T07:07:56.758Z,1345.00
2023-05-10T07:08:56.792Z,1356.00
2023-05-10T07:09:56.792Z,1349.00
2023-05-10T07:10:56.818Z,1342.00
2023-05-10T07:11:56.805Z,1341.00
2023-05-10T07:12:56.945Z,1338.00
2023-05-10T07:13:57.081Z,1336.00
2023-05-10T07:14:57.285Z,1321.00
2023-05-10T07:15:56.949Z,814.00
2023-05-10T07:16:56.979Z,814.00
2023-05-10T07:17:57.092Z,769.00
2023-05-10T07:18:57.081Z,810.00
2023-05-10T07:19:57.115Z,840.00
2023-05-10T07:20:57.143Z,836.00
2023-05-10T07:21:57.123Z,823.00
2023-05-10T07:22:57.109Z,793.00
2023-05-10T07:23:57.148Z,780.00
2023-05-10T07:24:57.210Z,782.00
2023-05-10T07:25:57.242Z,776.00
2023-05-10T07:26:57.251Z,768.00
2023-05-10T07:27:57.241Z,759.00
2023-05-10T07:28:57.303Z,753.00
2023-05-10T07:29:57.343Z,740.00
2023-05-10T07:30:57.434Z,732.00
2023-05-10T07:31:58.828Z,738.00
2023-05-10T07:32:57.431Z,736.00
2023-05-10T07:33:57.449Z,729.00
2023-05-10T07:34:57.531Z,735.00
2023-05-10T07:35:57.554Z,745.00
2023-05-10T07:36:57.662Z,750.00
2023-05-10T07:37:57.718Z,750.00
2023-05-10T07:38:57.765Z,740.00
2023-05-10T07:39:57.851Z,733.00
2023-05-10T07:40:57.872Z,724.00
2023-05-10T07:41:57.982Z,738.00
2023-05-10T07:42:57.958Z,731.00
2023-05-10T07:43:58.006Z,760.00
2023-05-10T07:44:58.099Z,769.00
2023-05-10T07:45:58.123Z,730.00
2023-05-10T07:46:58.040Z,706.00
2023-05-10T07:47:58.087Z,702.00
2023-05-10T07:48:58.111Z,697.00
2023-05-10T07:49:58.162Z,684.00
2023-05-10T07:50:58.227Z,684.00
2023-05-10T07:51:58.251Z,684.00
2023-05-10T07:52:58.290Z,687.00
2023-05-10T07:53:58.387Z,689.00
2023-05-10T07:54:58.394Z,687.00
2023-05-10T07:55:58.393Z,685.00
2023-05-10T07:56:58.473Z,680.00
2023-05-10T07:57:58.475Z,675.00
2023-05-10T07:58:58.483Z,668.00
2023-05-10T07:59:58.801Z,664.00
2023-05-10T08:00:58.492Z,661.00
2023-05-10T08:01:58.545Z,658.00
2023-05-10T08:02:58.653Z,659.00
2023-05-10T08:03:58.628Z,655.00
2023-05-10T08:04:58.574Z,650.00
2023-05-10T08:05:58.562Z,648.00
2023-05-10T08:06:58.564Z,646.00
2023-05-10T08:07:58.562Z,642.00
2023-05-10T08:08:58.641Z,639.00
2023-05-10T08:09:58.613Z,638.00
2023-05-10T08:10:58.612Z,635.00
2023-05-10T08:11:58.591Z,631.00
2023-05-10T08:12:58.611Z,629.00
2023-05-10T08:13:58.633Z,625.00
2023-05-10T08:14:58.621Z,623.00
2023-05-10T08:15:58.667Z,622.00
2023-05-10T08:16:58.597Z,619.00
2023-05-10T08:17:58.667Z,619.00
2023-05-10T08:18:58.640Z,616.00
2023-05-10T08:19:58.589Z,613.00
2023-05-10T08:20:58.632Z,608.00
2023-05-10T08:21:59.320Z,606.00
2023-05-10T08:22:58.581Z,605.00
2023-05-10T08:23:58.572Z,603.00
2023-05-10T08:24:58.574Z,602.00
2023-05-10T08:25:58.595Z,600.00
2023-05-10T08:26:58.613Z,598.00
2023-05-10T08:27:58.563Z,596.00
2023-05-10T08:28:58.578Z,591.00
2023-05-10T08:29:58.679Z,589.00
2023-05-10T08:30:58.837Z,588.00
2023-05-10T08:31:58.554Z,586.00
2023-05-10T08:32:58.680Z,584.00
2023-05-10T08:33:58.666Z,582.00
2023-05-10T08:34:58.596Z,579.00
2023-05-10T08:35:58.844Z,578.00
2023-05-10T08:36:58.587Z,579.00
2023-05-10T08:37:58.621Z,577.00
2023-05-10T08:38:58.606Z,574.00
2023-05-10T08:39:58.589Z,573.00
2023-05-10T08:40:58.849Z,571.00
2023-05-10T08:41:58.607Z,566.00
2023-05-10T08:42:58.628Z,564.00
2023-05-10T08:43:58.585Z,563.00
2023-05-10T08:44:58.586Z,562.00
2023-05-10T08:45:58.618Z,563.00
2023-05-10T08:46:58.677Z,562.00
2023-05-10T08:47:58.614Z,561.00
2023-05-10T08:48:58.560Z,560.00
2023-05-10T08:49:58.549Z,557.00
2023-05-10T08:50:58.810Z,557.00
2023-05-10T08:51:58.595Z,555.00
2023-05-10T08:52:58.604Z,555.00
2023-05-10T08:53:58.625Z,554.00
2023-05-10T08:54:58.583Z,554.00
2023-05-10T08:55:58.611Z,553.00
2023-05-10T08:56:58.588Z,553.00
2023-05-10T08:57:58.561Z,553.00
2023-05-10T08:58:58.589Z,551.00
2023-05-10T08:59:58.595Z,550.00
2023-05-10T09:00:58.850Z,548.00
2023-05-10T09:01:58.576Z,548.00
2023-05-10T09:02:58.605Z,548.00
2023-05-10T09:03:58.682Z,547.00
2023-05-10T09:04:58.732Z,546.00
2023-05-10T09:05:58.833Z,544.00
2023-05-10T09:06:58.578Z,540.00
2023-05-10T09:07:58.608Z,539.00
2023-05-10T09:08:58.552Z,537.00
2023-05-10T09:09:58.578Z,538.00
2023-05-10T09:10:58.840Z,538.00
2023-05-10T09:11:58.623Z,539.00
2023-05-10T09:12:59.402Z,536.00
2023-05-10T09:13:58.542Z,535.00
2023-05-10T09:14:58.602Z,533.00
2023-05-10T09:16:02.260Z,532.00
2023-05-10T09:16:59.651Z,532.00
2023-05-10T09:17:58.585Z,531.00
2023-05-10T09:18:58.614Z,529.00
2023-05-10T09:19:58.527Z,531.00
2023-05-10T09:20:58.546Z,528.00
2023-05-10T09:21:58.542Z,530.00
2023-05-10T09:22:58.497Z,528.00
2023-05-10T09:23:58.521Z,527.00
2023-05-10T09:24:58.484Z,528.00
2023-05-10T09:25:58.491Z,527.00
2023-05-10T09:26:58.520Z,525.00
2023-05-10T09:27:58.477Z,522.00
2023-05-10T09:28:58.520Z,520.00
2023-05-10T09:29:58.459Z,519.00
2023-05-10T09:30:58.895Z,518.00
2023-05-10T09:31:58.472Z,520.00
2023-05-10T09:32:58.529Z,521.00
2023-05-10T09:33:58.450Z,520.00
2023-05-10T09:34:58.486Z,613.00
2023-05-10T09:35:58.482Z,548.00
2023-05-10T09:36:58.426Z,584.00
2023-05-10T09:37:58.443Z,580.00
2023-05-10T09:38:58.464Z,585.00
2023-05-10T09:39:58.476Z,586.00
2023-05-10T09:40:58.833Z,595.00
2023-05-10T09:41:58.519Z,610.00
2023-05-10T09:42:58.520Z,648.00
2023-05-10T09:43:58.594Z,704.00
2023-05-10T09:44:58.543Z,703.00
2023-05-10T09:45:58.869Z,704.00
2023-05-10T09:46:58.615Z,720.00
2023-05-10T09:47:58.690Z,738.00
2023-05-10T09:48:58.732Z,839.00
2023-05-10T09:49:58.752Z,858.00
2023-05-10T09:50:58.822Z,886.00
2023-05-10T09:51:58.791Z,915.00
2023-05-10T09:52:58.800Z,935.00
2023-05-10T09:53:58.851Z,954.00
2023-05-10T09:54:58.792Z,988.00
2023-05-10T09:55:58.850Z,1018.00
2023-05-10T09:56:58.919Z,1032.00
2023-05-10T09:57:58.970Z,1055.00
2023-05-10T09:58:59.004Z,1073.00
2023-05-10T09:59:59.058Z,1085.00
2023-05-10T10:00:59.368Z,1096.00
2023-05-10T10:01:59.298Z,1112.00
2023-05-10T10:02:59.225Z,1145.00
2023-05-10T10:03:59.178Z,1168.00
2023-05-10T10:04:59.249Z,1189.00
2023-05-10T10:05:59.256Z,1203.00
2023-05-10T10:06:59.217Z,1219.00
2023-05-10T10:07:59.268Z,1272.00
2023-05-10T10:08:59.239Z,1280.00
2023-05-10T10:09:59.268Z,1285.00
2023-05-10T10:10:59.275Z,1287.00
2023-05-10T10:11:59.281Z,1296.00
2023-05-10T10:12:59.312Z,1310.00
2023-05-10T10:13:59.316Z,1327.00
2023-05-10T10:14:59.324Z,1382.00
2023-05-10T10:15:59.413Z,1383.00
2023-05-10T10:17:08.358Z,1392.00
2023-05-10T10:18:00.410Z,1404.00
2023-05-10T10:18:59.414Z,1418.00
2023-05-10T10:19:59.304Z,1428.00
2023-05-10T10:20:59.303Z,1436.00
2023-05-10T10:21:59.320Z,1446.00
2023-05-10T10:22:59.281Z,1450.00
2023-05-10T10:23:59.266Z,1456.00
2023-05-10T10:24:59.281Z,1466.00
2023-05-10T10:25:59.250Z,1476.00
2023-05-10T10:26:59.361Z,1491.00
2023-05-10T10:27:59.247Z,1497.00
2023-05-10T10:28:59.244Z,1506.00
2023-05-10T10:29:59.247Z,1511.00
2023-05-10T10:30:59.284Z,1513.00
2023-05-10T10:31:59.292Z,1500.00
2023-05-10T10:32:59.297Z,1132.00
2023-05-10T10:33:59.192Z,1206.00
2023-05-10T10:34:59.201Z,1127.00
2023-05-10T10:35:59.162Z,1016.00
2023-05-10T10:36:59.384Z,874.00
2023-05-10T10:37:59.187Z,729.00
2023-05-10T10:38:59.159Z,660.00
2023-05-10T10:39:59.356Z,596.00
2023-05-10T10:40:59.199Z,568.00
2023-05-10T10:41:59.402Z,529.00
2023-05-10T10:42:59.265Z,522.00
2023-05-10T10:43:59.279Z,521.00
2023-05-10T10:44:59.339Z,516.00
2023-05-10T10:45:59.371Z,511.00
2023-05-10T10:46:59.516Z,507.00
2023-05-10T10:47:59.501Z,502.00
2023-05-10T10:48:59.504Z,501.00
2023-05-10T10:49:59.472Z,498.00
2023-05-10T10:50:59.429Z,495.00
2023-05-10T10:51:59.463Z,491.00
2023-05-10T10:52:59.534Z,483.00
2023-05-10T10:53:59.522Z,479.00
2023-05-10T10:54:59.540Z,477.00
2023-05-10T10:55:59.616Z,473.00
2023-05-10T10:56:59.563Z,471.00
2023-05-10T10:57:59.606Z,468.00
2023-05-10T10:58:59.605Z,468.00
2023-05-10T10:59:59.656Z,467.00
2023-05-10T11:00:59.715Z,467.00
2023-05-10T11:01:59.733Z,464.00
2023-05-10T11:02:59.802Z,462.00
2023-05-10T11:03:59.793Z,459.00
2023-05-10T11:04:59.810Z,459.00
2023-05-10T11:05:59.808Z,460.00
2023-05-10T11:07:00.819Z,462.00
2023-05-10T11:07:59.799Z,461.00
2023-05-10T11:08:59.786Z,460.00
2023-05-10T11:09:59.817Z,460.00
2023-05-10T11:10:59.786Z,462.00
2023-05-10T11:11:59.833Z,461.00
2023-05-10T11:12:59.767Z,465.00
2023-05-10T11:13:59.823Z,461.00
2023-05-10T11:14:59.843Z,459.00
2023-05-10T11:15:59.740Z,461.00
2023-05-10T11:17:00.523Z,462.00
2023-05-10T11:17:59.808Z,464.00
2023-05-10T11:18:59.775Z,464.00
2023-05-10T11:19:59.696Z,465.00
2023-05-10T11:20:59.757Z,464.00
2023-05-10T11:21:59.716Z,462.00
2023-05-10T11:22:59.714Z,463.00
2023-05-10T11:23:59.761Z,466.00
2023-05-10T11:24:59.839Z,466.00
2023-05-10T11:25:59.782Z,461.00
2023-05-10T11:26:59.799Z,467.00
2023-05-10T11:27:59.945Z,560.00
2023-05-10T11:29:00.206Z,556.00
2023-05-10T11:30:00.390Z,562.00
2023-05-10T11:30:59.939Z,560.00
2023-05-10T11:32:00.008Z,557.00
2023-05-10T11:33:00.593Z,552.00
2023-05-10T11:34:00.007Z,548.00
2023-05-10T11:35:00.042Z,546.00
2023-05-10T11:36:00.049Z,544.00
2023-05-10T11:37:00.120Z,543.00
2023-05-10T11:38:00.461Z,541.00
2023-05-10T11:39:00.086Z,537.00
2023-05-10T11:40:00.033Z,534.00
2023-05-10T11:41:00.032Z,533.00
2023-05-10T11:42:00.015Z,530.00
2023-05-10T11:43:00.051Z,529.00
2023-05-10T11:44:00.024Z,524.00
2023-05-10T11:44:59.984Z,525.00
2023-05-10T11:46:00.068Z,522.00
2023-05-10T11:47:00.003Z,520.00
2023-05-10T11:48:00.094Z,519.00
2023-05-10T11:49:00.052Z,521.00
2023-05-10T11:50:00.125Z,518.00
2023-05-10T11:51:00.175Z,516.00
2023-05-10T11:52:00.173Z,514.00
2023-05-10T11:53:00.238Z,510.00
2023-05-10T11:54:00.250Z,507.00
2023-05-10T11:55:00.316Z,506.00
2023-05-10T11:56:00.401Z,505.00
2023-05-10T11:57:00.391Z,504.00
2023-05-10T11:58:00.467Z,502.00
2023-05-10T11:59:00.500Z,499.00
2023-05-10T12:00:00.560Z,496.00
2023-05-10T12:01:00.648Z,495.00
2023-05-10T12:02:00.660Z,494.00
2023-05-10T12:03:00.831Z,495.00
2023-05-10T12:04:01.059Z,492.00
2023-05-10T12:05:00.921Z,492.00
2023-05-10T12:06:00.882Z,492.00
2023-05-10T12:07:00.918Z,492.00
2023-05-10T12:08:00.973Z,491.00
2023-05-10T12:09:01.013Z,490.00
2023-05-10T12:10:01.093Z,490.00
2023-05-10T12:11:01.084Z,492.00
2023-05-10T12:12:01.130Z,491.00
2023-05-10T12:13:01.161Z,490.00
2023-05-10T12:14:01.131Z,489.00
2023-05-10T12:15:01.132Z,487.00
2023-05-10T12:16:01.210Z,485.00
2023-05-10T12:17:01.169Z,484.00
2023-05-10T12:18:01.224Z,483.00
2023-05-10T12:19:01.205Z,479.00
2023-05-10T12:20:01.213Z,480.00
2023-05-10T12:21:01.267Z,482.00
2023-05-10T12:22:01.293Z,482.00
2023-05-10T12:23:01.327Z,482.00
2023-05-10T12:24:01.377Z,485.00
2023-05-10T12:25:01.358Z,489.00
2023-05-10T12:26:01.375Z,493.00